createdAt,value
2023-05-02T00:00:57.823Z,36.80
2023-05-02T00:01:57.913Z,35.90
2023-05-02T00:02:57.962Z,35.00
2023-05-02T00:03:57.897Z,35.20
2023-05-02T00:04:57.810Z,37.40
2023-05-02T00:05:57.939Z,35.60
2023-05-02T00:06:57.895Z,38.40
2023-05-02T00:07:57.733Z,37.50
2023-05-02T00:08:57.707Z,35.30
2023-05-02T00:09:58.045Z,37.30
2023-05-02T00:10:57.741Z,37.30
2023-05-02T00:11:57.779Z,36.40
2023-05-02T00:12:57.664Z,35.50
2023-05-02T00:13:57.645Z,36.90
2023-05-02T00:14:57.641Z,39.60
2023-05-02T00:15:57.673Z,39.80
2023-05-02T00:16:57.730Z,36.10
2023-05-02T00:17:57.663Z,34.20
2023-05-02T00:18:57.642Z,35.90
2023-05-02T00:19:57.820Z,37.80
2023-05-02T00:20:57.608Z,39.00
2023-05-02T00:21:57.585Z,39.20
2023-05-02T00:22:57.592Z,40.40
2023-05-02T00:23:57.551Z,40.10
2023-05-02T00:24:57.569Z,39.00
2023-05-02T00:25:57.515Z,38.50
2023-05-02T00:26:57.587Z,38.60
2023-05-02T00:27:57.497Z,40.40
2023-05-02T00:28:57.491Z,37.00
2023-05-02T00:29:57.728Z,41.90
2023-05-02T00:30:57.484Z,42.30
2023-05-02T00:31:57.472Z,41.90
2023-05-02T00:32:57.554Z,37.80
2023-05-02T00:33:57.420Z,41.60
2023-05-02T00:34:57.427Z,40.80
2023-05-02T00:35:57.417Z,42.80
2023-05-02T00:36:57.432Z,41.20
2023-05-02T00:37:57.384Z,44.60
2023-05-02T00:38:57.383Z,46.00
2023-05-02T00:39:57.698Z,45.20
2023-05-02T00:40:57.357Z,42.90
2023-05-02T00:41:57.411Z,44.10
2023-05-02T00:42:57.337Z,46.40
2023-05-02T00:43:57.323Z,49.40
2023-05-02T00:44:57.325Z,48.70
2023-05-02T00:45:57.326Z,44.90
2023-05-02T00:46:57.362Z,46.80
2023-05-02T00:47:57.353Z,49.80
2023-05-02T00:48:57.270Z,49.70
2023-05-02T00:49:57.417Z,51.40
2023-05-02T00:50:57.260Z,49.40
2023-05-02T00:51:57.247Z,50.00
2023-05-02T00:52:57.227Z,52.10
2023-05-02T00:53:57.222Z,50.00
2023-05-02T00:54:57.203Z,49.50
2023-05-02T00:55:57.334Z,50.40
2023-05-02T00:56:57.190Z,49.10
2023-05-02T00:57:57.170Z,50.70
2023-05-02T00:58:57.198Z,53.90
2023-05-02T00:59:57.458Z,52.10
2023-05-02T01:00:57.148Z,53.10
2023-05-02T01:01:57.206Z,52.30
2023-05-02T01:02:57.210Z,54.00
2023-05-02T01:03:57.294Z,52.40
2023-05-02T01:04:57.092Z,54.00
2023-05-02T01:05:57.085Z,52.40
2023-05-02T01:06:57.135Z,53.90
2023-05-02T01:07:57.073Z,52.60
2023-05-02T01:08:57.051Z,53.90
2023-05-02T01:09:57.216Z,55.20
2023-05-02T01:10:57.064Z,53.00
2023-05-02T01:11:57.104Z,53.30
2023-05-02T01:12:57.008Z,52.40
2023-05-02T01:13:56.999Z,54.90
2023-05-02T01:14:57.014Z,51.10
2023-05-02T01:15:57.015Z,53.70
2023-05-02T01:16:57.010Z,56.80
2023-05-02T01:17:56.990Z,51.00
2023-05-02T01:18:56.949Z,57.00
2023-05-02T01:19:57.081Z,55.20
2023-05-02T01:20:56.929Z,52.50
2023-05-02T01:21:56.898Z,55.40
2023-05-02T01:22:56.896Z,51.40
2023-05-02T01:23:56.917Z,52.10
2023-05-02T01:24:56.943Z,55.90
2023-05-02T01:25:57.910Z,53.60
2023-05-02T01:26:56.859Z,52.20
2023-05-02T01:27:56.841Z,50.40
2023-05-02T01:28:56.833Z,55.40
2023-05-02T01:29:56.950Z,55.70
2023-05-02T01:30:56.873Z,58.00
2023-05-02T01:31:56.954Z,53.40
2023-05-02T01:32:56.826Z,54.70
2023-05-02T01:33:56.771Z,50.00
2023-05-02T01:34:56.786Z,50.50
2023-05-02T01:35:56.753Z,52.10
2023-05-02T01:36:56.748Z,56.60
2023-05-02T01:37:56.733Z,56.80
2023-05-02T01:38:56.761Z,54.70
2023-05-02T01:39:56.738Z,54.00
2023-05-02T01:40:56.731Z,54.60
2023-05-02T01:41:56.693Z,56.80
2023-05-02T01:42:56.676Z,55.40
2023-05-02T01:43:56.660Z,52.20
2023-05-02T01:44:56.690Z,52.90
2023-05-02T01:45:56.664Z,51.60
2023-05-02T01:46:56.738Z,57.00
2023-05-02T01:47:56.686Z,55.40
2023-05-02T01:48:56.616Z,56.60
2023-05-02T01:49:56.739Z,54.10
2023-05-02T01:50:56.627Z,52.20
2023-05-02T01:51:56.617Z,55.40
2023-05-02T01:52:56.605Z,54.60
2023-05-02T01:53:56.565Z,51.50
2023-05-02T01:54:56.562Z,49.90
2023-05-02T01:55:56.563Z,54.60
2023-05-02T01:56:56.543Z,55.20
2023-05-02T01:57:56.521Z,54.00
2023-05-02T01:58:56.645Z,53.30
2023-05-02T01:59:56.514Z,54.60
2023-05-02T02:00:56.551Z,51.30
2023-05-02T02:01:56.509Z,51.20
2023-05-02T02:02:56.507Z,54.60
2023-05-02T02:03:56.524Z,51.50
2023-05-02T02:04:56.471Z,49.30
2023-05-02T02:05:56.448Z,50.10
2023-05-02T02:06:56.478Z,51.40
2023-05-02T02:07:56.409Z,53.20
2023-05-02T02:08:56.406Z,50.80
2023-05-02T02:09:56.402Z,50.40
2023-05-02T02:10:56.375Z,52.40
2023-05-02T02:11:56.391Z,49.00
2023-05-02T02:12:56.386Z,50.10
2023-05-02T02:13:56.452Z,51.40
2023-05-02T02:14:56.331Z,51.40
2023-05-02T02:15:56.320Z,50.20
2023-05-02T02:16:56.409Z,51.00
2023-05-02T02:17:56.326Z,50.50
2023-05-02T02:18:56.311Z,50.10
2023-05-02T02:19:56.327Z,50.10
2023-05-02T02:20:56.268Z,45.90
2023-05-02T02:21:56.256Z,44.40
2023-05-02T02:22:56.245Z,50.20
2023-05-02T02:23:56.236Z,46.10
2023-05-02T02:24:56.264Z,49.30
2023-05-02T02:25:56.229Z,46.70
2023-05-02T02:26:56.230Z,47.70
2023-05-02T02:27:56.207Z,47.00
2023-05-02T02:28:56.184Z,47.80
2023-05-02T02:29:56.179Z,48.00
2023-05-02T02:30:56.195Z,46.10
2023-05-02T02:31:56.186Z,45.10
2023-05-02T02:32:56.239Z,45.40
2023-05-02T02:33:56.128Z,46.50
2023-05-02T02:34:56.113Z,47.10
2023-05-02T02:35:56.103Z,45.10
2023-05-02T02:36:56.106Z,43.50
2023-05-02T02:37:56.133Z,44.40
2023-05-02T02:38:56.073Z,46.80
2023-05-02T02:39:56.103Z,45.20
2023-05-02T02:40:56.075Z,43.80
2023-05-02T02:41:56.073Z,44.40
2023-05-02T02:42:56.055Z,43.10
2023-05-02T02:43:56.028Z,40.50
2023-05-02T02:44:56.136Z,42.80
2023-05-02T02:45:56.024Z,45.70
2023-05-02T02:46:55.990Z,41.90
2023-05-02T02:47:56.028Z,38.90
2023-05-02T02:48:55.988Z,39.50
2023-05-02T02:49:55.960Z,39.70
2023-05-02T02:50:55.971Z,43.70
2023-05-02T02:51:55.961Z,40.70
2023-05-02T02:52:55.929Z,39.90
2023-05-02T02:53:55.919Z,41.10
2023-05-02T02:54:55.925Z,38.10
2023-05-02T02:55:55.887Z,41.30
2023-05-02T02:56:55.939Z,40.30
2023-05-02T02:57:55.868Z,38.70
2023-05-02T02:58:55.857Z,41.30
2023-05-02T02:59:55.842Z,38.50
2023-05-02T03:00:55.864Z,40.50
2023-05-02T03:01:55.877Z,36.00
2023-05-02T03:02:55.852Z,39.30
2023-05-02T03:03:55.857Z,35.80
2023-05-02T03:04:55.788Z,36.90
2023-05-02T03:05:55.771Z,36.20
2023-05-02T03:06:55.968Z,34.60
2023-05-02T03:07:55.798Z,36.70
2023-05-02T03:08:55.769Z,35.20
2023-05-02T03:09:55.756Z,31.90
2023-05-02T03:10:55.720Z,34.20
2023-05-02T03:11:55.714Z,33.40
2023-05-02T03:12:56.139Z,35.20
2023-05-02T03:13:55.720Z,34.90
2023-05-02T03:14:55.721Z,33.00
2023-05-02T03:15:55.787Z,67.70
2023-05-02T03:16:55.674Z,37.00
2023-05-02T03:17:55.698Z,32.10
2023-05-02T03:18:55.705Z,59.20
2023-05-02T03:19:55.630Z,33.70
2023-05-02T03:20:55.656Z,30.60
2023-05-02T03:21:55.598Z,33.00
2023-05-02T03:22:55.584Z,33.50
2023-05-02T03:23:55.648Z,29.40
2023-05-02T03:24:55.568Z,33.60
2023-05-02T03:25:55.582Z,33.10
2023-05-02T03:26:55.552Z,33.40
2023-05-02T03:27:55.535Z,32.00
2023-05-02T03:28:55.529Z,28.20
2023-05-02T03:29:55.597Z,31.40
2023-05-02T03:30:55.542Z,34.30
2023-05-02T03:31:55.525Z,29.50
2023-05-02T03:32:55.567Z,30.30
2023-05-02T03:33:55.517Z,27.40
2023-05-02T03:34:55.468Z,28.90
2023-05-02T03:35:55.506Z,28.10
2023-05-02T03:36:55.442Z,29.00
2023-05-02T03:37:55.462Z,26.70
2023-05-02T03:38:55.416Z,28.70
2023-05-02T03:39:55.405Z,31.70
2023-05-02T03:40:55.389Z,26.10
2023-05-02T03:41:55.443Z,29.10
2023-05-02T03:42:55.380Z,29.50
2023-05-02T03:43:55.362Z,28.70
2023-05-02T03:44:55.348Z,28.20
2023-05-02T03:45:55.339Z,27.80
2023-05-02T03:46:55.377Z,30.70
2023-05-02T03:47:55.525Z,25.40
2023-05-02T03:48:55.311Z,28.00
2023-05-02T03:49:55.337Z,26.60
2023-05-02T03:50:55.308Z,26.00
2023-05-02T03:51:55.302Z,25.80
2023-05-02T03:52:55.287Z,26.40
2023-05-02T03:53:55.252Z,26.50
2023-05-02T03:54:55.246Z,25.50
2023-05-02T03:55:55.229Z,29.20
2023-05-02T03:56:55.279Z,25.50
2023-05-02T03:57:55.208Z,24.10
2023-05-02T03:58:55.240Z,24.20
2023-05-02T03:59:55.181Z,25.50
2023-05-02T04:00:55.192Z,24.70
2023-05-02T04:01:55.252Z,24.70
2023-05-02T04:02:55.207Z,27.40
2023-05-02T04:03:55.203Z,25.50
2023-05-02T04:04:55.188Z,27.00
2023-05-02T04:05:55.160Z,27.00
2023-05-02T04:06:55.228Z,24.80
2023-05-02T04:07:55.131Z,24.50
2023-05-02T04:08:55.084Z,23.40
2023-05-02T04:09:55.100Z,26.10
2023-05-02T04:10:55.099Z,24.50
2023-05-02T04:11:55.064Z,27.00
2023-05-02T04:12:55.034Z,26.50
2023-05-02T04:13:55.048Z,31.00
2023-05-02T04:14:55.030Z,28.30
2023-05-02T04:15:55.032Z,28.30
2023-05-02T04:16:55.095Z,32.50
2023-05-02T04:17:55.032Z,29.80
2023-05-02T04:18:54.975Z,32.00
2023-05-02T04:19:54.985Z,29.50
2023-05-02T04:20:54.963Z,30.60
2023-05-02T04:21:54.997Z,28.60
2023-05-02T04:22:54.991Z,28.00
2023-05-02T04:23:54.920Z,30.80
2023-05-02T04:24:54.919Z,30.20
2023-05-02T04:25:56.030Z,28.70
2023-05-02T04:26:54.900Z,31.50
2023-05-02T04:27:54.886Z,30.70
2023-05-02T04:28:54.869Z,31.40
2023-05-02T04:29:54.876Z,29.00
2023-05-02T04:30:54.888Z,29.90
2023-05-02T04:31:54.864Z,30.20
2023-05-02T04:32:54.875Z,33.30
2023-05-02T04:33:54.819Z,33.30
2023-05-02T04:34:54.794Z,35.50
2023-05-02T04:35:54.787Z,30.80
2023-05-02T04:36:54.841Z,31.90
2023-05-02T04:37:54.765Z,33.10
2023-05-02T04:38:54.748Z,30.60
2023-05-02T04:39:54.749Z,31.20
2023-05-02T04:40:54.734Z,31.50
2023-05-02T04:41:54.739Z,34.30
2023-05-02T04:42:54.736Z,34.50
2023-05-02T04:43:54.739Z,31.50
2023-05-02T04:44:54.715Z,33.00
2023-05-02T04:45:54.707Z,31.90
2023-05-02T04:46:54.806Z,37.10
2023-05-02T04:47:54.802Z,32.50
2023-05-02T04:48:54.647Z,33.70
2023-05-02T04:49:54.646Z,31.40
2023-05-02T04:50:54.644Z,35.10
2023-05-02T04:51:54.631Z,33.70
2023-05-02T04:52:54.607Z,36.00
2023-05-02T04:53:54.616Z,34.90
2023-05-02T04:54:54.585Z,34.40
2023-05-02T04:55:54.636Z,29.70
2023-05-02T04:56:54.578Z,30.80
2023-05-02T04:57:54.610Z,31.80
2023-05-02T04:58:54.552Z,28.30
2023-05-02T04:59:54.528Z,23.70
2023-05-02T05:00:54.519Z,23.10
2023-05-02T05:01:54.659Z,24.20
2023-05-02T05:02:54.665Z,20.20
2023-05-02T05:03:54.948Z,19.70
2023-05-02T05:04:54.511Z,16.20
2023-05-02T05:05:54.490Z,17.80
2023-05-02T05:06:54.524Z,15.70
2023-05-02T05:07:54.516Z,13.40
2023-05-02T05:08:54.447Z,19.20
2023-05-02T05:09:54.434Z,15.20
2023-05-02T05:10:54.422Z,12.30
2023-05-02T05:11:54.408Z,14.10
2023-05-02T05:12:56.365Z,13.80
2023-05-02T05:13:54.405Z,13.20
2023-05-02T05:14:54.447Z,14.30
2023-05-02T05:15:54.389Z,15.30
2023-05-02T05:16:54.844Z,14.40
2023-05-02T05:17:54.437Z,15.00
2023-05-02T05:18:54.358Z,15.90
2023-05-02T05:19:54.317Z,13.10
2023-05-02T05:20:54.327Z,13.70
2023-05-02T05:21:54.291Z,12.50
2023-05-02T05:22:54.726Z,19.00
2023-05-02T05:23:54.324Z,14.30
2023-05-02T05:24:54.293Z,13.30
2023-05-02T05:25:54.341Z,16.90
2023-05-02T05:26:54.279Z,18.20
2023-05-02T05:27:54.227Z,17.10
2023-05-02T05:28:54.208Z,14.30
2023-05-02T05:29:54.202Z,15.40
2023-05-02T05:30:54.286Z,17.40
2023-05-02T05:31:54.231Z,21.70
2023-05-02T05:32:54.240Z,20.90
2023-05-02T05:33:54.214Z,15.90
2023-05-02T05:34:54.152Z,16.20
2023-05-02T05:35:54.200Z,20.50
2023-05-02T05:36:54.126Z,18.50
2023-05-02T05:37:54.133Z,32.10
2023-05-02T05:38:54.104Z,19.30
2023-05-02T05:39:54.133Z,15.60
2023-05-02T05:40:54.081Z,19.30
2023-05-02T05:41:54.117Z,16.50
2023-05-02T05:42:54.070Z,18.70
2023-05-02T05:43:54.061Z,14.70
2023-05-02T05:44:54.093Z,18.00
2023-05-02T05:45:54.030Z,17.00
2023-05-02T05:46:54.076Z,13.40
2023-05-02T05:47:54.139Z,18.30
2023-05-02T05:48:54.012Z,14.20
2023-05-02T05:49:54.026Z,14.00
2023-05-02T05:50:53.972Z,18.20
2023-05-02T05:51:53.966Z,15.60
2023-05-02T05:52:53.982Z,19.20
2023-05-02T05:53:53.949Z,13.20
2023-05-02T05:54:55.872Z,14.60
2023-05-02T05:55:53.927Z,11.40
2023-05-02T05:56:53.914Z,12.20
2023-05-02T05:57:53.901Z,13.30
2023-05-02T05:58:53.884Z,16.80
2023-05-02T05:59:53.931Z,14.30
2023-05-02T06:00:53.867Z,12.00
2023-05-02T06:01:55.555Z,13.70
2023-05-02T06:02:54.093Z,16.80
2023-05-02T06:03:53.972Z,15.10
2023-05-02T06:04:53.880Z,14.70
2023-05-02T06:05:53.814Z,17.40
2023-05-02T06:06:53.932Z,12.80
2023-05-02T06:07:53.856Z,11.80
2023-05-02T06:08:53.792Z,12.80
2023-05-02T06:09:53.793Z,14.20
2023-05-02T06:10:53.760Z,15.30
2023-05-02T06:11:53.756Z,12.70
2023-05-02T06:12:53.772Z,13.40
2023-05-02T06:13:53.756Z,15.70
2023-05-02T06:14:53.725Z,16.00
2023-05-02T06:15:54.047Z,17.50
2023-05-02T06:16:53.700Z,12.90
2023-05-02T06:17:53.775Z,13.70
2023-05-02T06:18:55.690Z,16.50
2023-05-02T06:19:55.388Z,13.80
2023-05-02T06:20:53.637Z,13.30
2023-05-02T06:21:53.630Z,15.10
2023-05-02T06:22:53.626Z,11.40
2023-05-02T06:23:53.663Z,13.00
2023-05-02T06:24:55.236Z,13.30
2023-05-02T06:25:53.587Z,12.50
2023-05-02T06:26:53.617Z,13.80
2023-05-02T06:27:53.566Z,10.70
2023-05-02T06:28:53.580Z,14.80
2023-05-02T06:29:56.838Z,12.00
2023-05-02T06:30:53.549Z,14.20
2023-05-02T06:31:53.567Z,14.70
2023-05-02T06:32:53.575Z,15.30
2023-05-02T06:33:53.505Z,13.70
2023-05-02T06:34:53.498Z,8.90
2023-05-02T06:35:53.529Z,10.90
2023-05-02T06:36:53.489Z,14.50
2023-05-02T06:37:53.465Z,12.40
2023-05-02T06:38:53.462Z,12.30
2023-05-02T06:39:53.453Z,11.30
2023-05-02T06:40:53.430Z,11.10
2023-05-02T06:41:53.627Z,11.50
2023-05-02T06:42:53.420Z,10.70
2023-05-02T06:43:53.451Z,13.90
2023-05-02T06:44:53.403Z,11.10
2023-05-02T06:45:53.381Z,10.70
2023-05-02T06:46:55.437Z,13.70
2023-05-02T06:47:54.334Z,11.60
2023-05-02T06:48:53.359Z,11.30
2023-05-02T06:49:53.359Z,10.70
2023-05-02T06:50:53.385Z,11.70
2023-05-02T06:51:53.326Z,12.80
2023-05-02T06:52:53.310Z,11.90
2023-05-02T06:53:58.284Z,10.20
2023-05-02T06:54:53.286Z,9.30
2023-05-02T06:55:53.283Z,12.40
2023-05-02T06:56:53.316Z,14.10
2023-05-02T06:57:53.253Z,10.40
2023-05-02T06:58:56.484Z,10.30
2023-05-02T06:59:53.233Z,9.60
2023-05-02T07:00:53.343Z,10.10
2023-05-02T07:01:53.201Z,10.80
2023-05-02T07:02:53.211Z,11.00
2023-05-02T07:03:53.192Z,9.50
2023-05-02T07:04:53.232Z,9.30
2023-05-02T07:05:53.184Z,8.20
2023-05-02T07:06:53.276Z,9.80
2023-05-02T07:07:53.128Z,10.10
2023-05-02T07:08:53.144Z,9.80
2023-05-02T07:09:53.153Z,10.80
2023-05-02T07:10:53.154Z,8.70
2023-05-02T07:11:53.099Z,8.40
2023-05-02T07:12:53.094Z,7.90
2023-05-02T07:13:55.284Z,9.80
2023-05-02T07:14:53.087Z,8.00
2023-05-02T07:15:53.083Z,4.50
2023-05-02T07:16:53.081Z,5.80
2023-05-02T07:17:53.081Z,5.70
2023-05-02T07:18:53.013Z,4.50
2023-05-02T07:19:53.038Z,3.50
2023-05-02T07:20:53.000Z,4.40
2023-05-02T07:21:54.470Z,3.40
2023-05-02T07:22:52.980Z,3.00
2023-05-02T07:23:52.981Z,4.10
2023-05-02T07:24:52.954Z,4.70
2023-05-02T07:25:52.957Z,4.40
2023-05-02T07:26:52.943Z,4.80
2023-05-02T07:27:52.920Z,4.30
2023-05-02T07:28:52.909Z,4.50
2023-05-02T07:29:52.924Z,5.70
2023-05-02T07:30:52.897Z,4.90
2023-05-02T07:31:54.703Z,4.90
2023-05-02T07:32:56.693Z,5.60
2023-05-02T07:33:52.855Z,4.40
2023-05-02T07:34:52.839Z,3.90
2023-05-02T07:35:52.837Z,7.80
2023-05-02T07:36:52.824Z,13.60
2023-05-02T07:37:52.822Z,14.80
2023-05-02T07:38:54.449Z,7.10
2023-05-02T07:39:54.535Z,5.00
2023-05-02T07:40:52.796Z,5.00
2023-05-02T07:41:52.844Z,3.80
2023-05-02T07:42:52.798Z,7.80
2023-05-02T07:43:52.744Z,4.40
2023-05-02T07:44:52.756Z,5.10
2023-05-02T07:45:52.803Z,5.30
2023-05-02T07:46:52.739Z,5.30
2023-05-02T07:47:52.827Z,7.10
2023-05-02T07:48:52.725Z,5.10
2023-05-02T07:49:52.683Z,7.10
2023-05-02T07:50:52.759Z,6.90
2023-05-02T07:51:52.694Z,8.20
2023-05-02T07:52:52.659Z,5.30
2023-05-02T07:53:52.646Z,6.40
2023-05-02T07:54:52.630Z,7.00
2023-05-02T07:55:52.674Z,7.80
2023-05-02T07:56:52.637Z,6.30
2023-05-02T07:57:52.684Z,12.80
2023-05-02T07:58:52.588Z,8.30
2023-05-02T07:59:52.576Z,9.90
2023-05-02T08:00:52.564Z,7.00
2023-05-02T08:01:59.686Z,10.40
2023-05-02T08:02:52.705Z,8.20
2023-05-02T08:03:52.878Z,11.10
2023-05-02T08:04:52.711Z,10.50
2023-05-02T08:05:52.534Z,9.10
2023-05-02T08:06:55.794Z,9.80
2023-05-02T08:07:52.502Z,11.20
2023-05-02T08:08:52.492Z,12.10
2023-05-02T08:09:52.479Z,12.00
2023-05-02T08:10:52.479Z,8.60
2023-05-02T08:11:54.350Z,12.70
2023-05-02T08:12:52.459Z,9.10
2023-05-02T08:13:52.419Z,9.90
2023-05-02T08:14:52.420Z,8.30
2023-05-02T08:15:52.534Z,11.10
2023-05-02T08:16:52.527Z,9.70
2023-05-02T08:17:52.457Z,9.60
2023-05-02T08:18:52.385Z,9.00
2023-05-02T08:19:52.373Z,11.50
2023-05-02T08:20:52.347Z,9.30
2023-05-02T08:21:57.456Z,9.30
2023-05-02T08:22:57.049Z,9.30
2023-05-02T08:23:52.316Z,10.90
2023-05-02T08:24:52.310Z,8.00
2023-05-02T08:25:52.295Z,8.70
2023-05-02T08:26:52.299Z,10.20
2023-05-02T08:27:54.025Z,10.90
2023-05-02T08:28:52.273Z,9.00
2023-05-02T08:29:52.272Z,10.90
2023-05-02T08:30:52.239Z,10.20
2023-05-02T08:31:52.282Z,9.20
2023-05-02T08:32:52.352Z,9.10
2023-05-02T08:33:52.206Z,13.00
2023-05-02T08:34:52.203Z,12.00
2023-05-02T08:35:52.188Z,12.00
2023-05-02T08:36:52.190Z,12.90
2023-05-02T08:37:52.169Z,10.80
2023-05-02T08:38:52.195Z,9.30
2023-05-02T08:39:52.181Z,9.90
2023-05-02T08:40:52.133Z,11.30
2023-05-02T08:41:52.136Z,23.80
2023-05-02T08:42:52.245Z,14.00
2023-05-02T08:43:52.094Z,12.80
2023-05-02T08:44:52.094Z,10.20
2023-05-02T08:45:53.340Z,9.50
2023-05-02T08:46:52.111Z,12.50
2023-05-02T08:47:52.311Z,13.00
2023-05-02T08:48:52.049Z,11.50
2023-05-02T08:49:52.046Z,13.10
2023-05-02T08:50:52.059Z,9.40
2023-05-02T08:51:52.025Z,10.40
2023-05-02T08:52:52.011Z,11.10
2023-05-02T08:53:54.970Z,9.40
2023-05-02T08:54:51.996Z,10.40
2023-05-02T08:55:51.967Z,9.30
2023-05-02T08:56:51.960Z,10.10
2023-05-02T08:57:51.955Z,9.80
2023-05-02T08:58:55.114Z,11.00
2023-05-02T08:59:51.964Z,9.10
2023-05-02T09:00:51.953Z,8.40
2023-05-02T09:01:51.902Z,11.20
2023-05-02T09:02:51.929Z,8.30
2023-05-02T09:03:52.078Z,9.70
2023-05-02T09:04:51.877Z,10.10
2023-05-02T09:05:55.523Z,14.50
2023-05-02T09:06:51.947Z,9.90
2023-05-02T09:07:52.000Z,9.80
2023-05-02T09:08:51.864Z,11.00
2023-05-02T09:09:51.828Z,8.20
2023-05-02T09:10:51.806Z,8.30
2023-05-02T09:11:51.795Z,10.60
2023-05-02T09:12:51.779Z,11.10
2023-05-02T09:13:51.799Z,9.40
2023-05-02T09:14:53.499Z,11.40
2023-05-02T09:15:51.764Z,10.40
2023-05-02T09:16:51.816Z,11.40
2023-05-02T09:17:51.782Z,8.70
2023-05-02T09:18:51.715Z,9.80
2023-05-02T09:19:51.765Z,7.20
2023-05-02T09:20:51.767Z,8.20
2023-05-02T09:21:51.708Z,10.00
2023-05-02T09:22:51.727Z,11.20
2023-05-02T09:23:51.665Z,10.00
2023-05-02T09:24:51.673Z,9.40
2023-05-02T09:25:53.352Z,8.00
2023-05-02T09:26:51.647Z,9.20
2023-05-02T09:27:51.632Z,8.30
2023-05-02T09:28:51.640Z,10.90
2023-05-02T09:29:51.597Z,9.00
2023-05-02T09:30:51.667Z,12.20
2023-05-02T09:31:56.086Z,9.50
2023-05-02T09:32:52.766Z,7.00
2023-05-02T09:33:51.604Z,10.40
2023-05-02T09:34:51.546Z,8.20
2023-05-02T09:35:51.536Z,8.20
2023-05-02T09:36:51.533Z,10.60
2023-05-02T09:37:51.512Z,11.70
2023-05-02T09:38:51.512Z,8.80
2023-05-02T09:39:51.567Z,8.90
2023-05-02T09:40:51.502Z,11.00
2023-05-02T09:41:51.470Z,11.00
2023-05-02T09:42:51.460Z,10.70
2023-05-02T09:43:51.477Z,9.10
2023-05-02T09:44:52.752Z,12.40
2023-05-02T09:45:51.458Z,11.70
2023-05-02T09:46:51.461Z,10.30
2023-05-02T09:47:51.422Z,8.30
2023-05-02T09:48:52.571Z,10.90
2023-05-02T09:49:51.377Z,11.30
2023-05-02T09:50:51.380Z,11.20
2023-05-02T09:51:51.394Z,10.30
2023-05-02T09:52:51.362Z,10.80
2023-05-02T09:53:51.352Z,11.00
2023-05-02T09:54:56.479Z,12.30
2023-05-02T09:55:51.320Z,11.70
2023-05-02T09:56:51.319Z,13.90
2023-05-02T09:57:51.299Z,11.80
2023-05-02T09:58:51.286Z,8.10
2023-05-02T09:59:51.268Z,12.00
2023-05-02T10:00:51.301Z,9.80
2023-05-02T10:01:51.327Z,13.90
2023-05-02T10:02:51.313Z,10.80
2023-05-02T10:03:51.245Z,12.00
2023-05-02T10:04:51.226Z,11.00
2023-05-02T10:05:51.254Z,10.10
2023-05-02T10:06:51.335Z,10.70
2023-05-02T10:07:51.218Z,10.00
2023-05-02T10:08:51.243Z,12.20
2023-05-02T10:09:51.167Z,9.70
2023-05-02T10:10:51.252Z,10.10
2023-05-02T10:11:51.141Z,13.60
2023-05-02T10:12:54.483Z,8.80
2023-05-02T10:13:51.211Z,12.60
2023-05-02T10:14:51.122Z,8.70
2023-05-02T10:15:51.152Z,11.70
2023-05-02T10:16:51.106Z,12.60
2023-05-02T10:17:51.114Z,13.20
2023-05-02T10:18:51.101Z,10.60
2023-05-02T10:19:51.051Z,8.10
2023-05-02T10:20:51.135Z,9.70
2023-05-02T10:21:51.034Z,10.00
2023-05-02T10:22:51.056Z,8.20
2023-05-02T10:23:51.010Z,8.20
2023-05-02T10:24:51.015Z,9.90
2023-05-02T10:25:50.989Z,11.70
2023-05-02T10:26:52.558Z,12.70
2023-05-02T10:27:50.982Z,11.00
2023-05-02T10:28:50.969Z,10.40
2023-05-02T10:29:50.947Z,11.60
2023-05-02T10:30:50.954Z,9.80
2023-05-02T10:31:53.263Z,10.80
2023-05-02T10:32:51.002Z,9.90
2023-05-02T10:33:50.952Z,11.00
2023-05-02T10:34:50.911Z,10.70
2023-05-02T10:35:56.124Z,10.10
2023-05-02T10:36:51.372Z,11.30
2023-05-02T10:37:50.912Z,10.00
2023-05-02T10:38:51.179Z,9.80
2023-05-02T10:39:50.886Z,9.70
2023-05-02T10:40:50.848Z,7.90
2023-05-02T10:41:52.563Z,8.80
2023-05-02T10:42:50.832Z,12.80
2023-05-02T10:43:51.169Z,10.90
2023-05-02T10:44:50.788Z,12.60
2023-05-02T10:45:50.787Z,9.60
2023-05-02T10:46:52.534Z,9.50
2023-05-02T10:47:50.808Z,9.40
2023-05-02T10:48:50.761Z,13.30
2023-05-02T10:49:50.724Z,11.60
2023-05-02T10:50:50.720Z,9.60
2023-05-02T10:51:50.750Z,7.50
2023-05-02T10:52:50.697Z,8.90
2023-05-02T10:53:50.689Z,10.80
2023-05-02T10:54:50.732Z,9.70
2023-05-02T10:55:50.660Z,10.50
2023-05-02T10:56:50.685Z,10.60
2023-05-02T10:57:50.642Z,6.30
2023-05-02T10:58:50.661Z,7.40
2023-05-02T10:59:50.623Z,8.70
2023-05-02T11:00:50.650Z,11.00
2023-05-02T11:01:50.645Z,10.90
2023-05-02T11:02:50.648Z,11.50
2023-05-02T11:03:53.273Z,9.90
2023-05-02T11:04:50.606Z,15.20
2023-05-02T11:05:50.562Z,9.70
2023-05-02T11:06:50.634Z,10.00
2023-05-02T11:07:50.536Z,10.60
2023-05-02T11:08:50.557Z,11.20
2023-05-02T11:09:50.496Z,9.40
2023-05-02T11:10:50.491Z,9.40
2023-05-02T11:11:50.485Z,7.90
2023-05-02T11:12:52.141Z,9.80
2023-05-02T11:13:50.465Z,6.70
2023-05-02T11:14:50.453Z,8.30
2023-05-02T11:15:50.438Z,5.20
2023-05-02T11:16:50.502Z,5.80
2023-05-02T11:17:50.474Z,7.70
2023-05-02T11:18:51.495Z,7.80
2023-05-02T11:19:55.205Z,4.90
2023-05-02T11:20:50.393Z,5.90
2023-05-02T11:21:50.393Z,6.10
2023-05-02T11:22:50.374Z,5.50
2023-05-02T11:23:50.358Z,7.30
2023-05-02T11:24:50.381Z,8.40
2023-05-02T11:25:50.339Z,4.60
2023-05-02T11:26:50.324Z,7.20
2023-05-02T11:27:50.316Z,5.30
2023-05-02T11:28:50.298Z,8.60
2023-05-02T11:29:51.651Z,7.10
2023-05-02T11:30:50.271Z,8.00
2023-05-02T11:31:50.292Z,8.60
2023-05-02T11:32:50.296Z,5.10
2023-05-02T11:33:50.257Z,6.10
2023-05-02T11:34:50.229Z,4.60
2023-05-02T11:35:50.258Z,7.10
2023-05-02T11:36:50.266Z,5.90
2023-05-02T11:37:50.203Z,6.10
2023-05-02T11:38:50.194Z,5.40
2023-05-02T11:39:50.185Z,7.20
2023-05-02T11:40:50.168Z,7.00
2023-05-02T11:41:50.163Z,8.70
2023-05-02T11:42:50.221Z,6.30
2023-05-02T11:43:50.167Z,6.70
2023-05-02T11:44:50.133Z,6.70
2023-05-02T11:45:50.145Z,8.10
2023-05-02T11:46:51.908Z,6.50
2023-05-02T11:47:50.156Z,6.40
2023-05-02T11:48:50.073Z,9.40
2023-05-02T11:49:50.076Z,6.00
2023-05-02T11:50:50.770Z,6.70
2023-05-02T11:51:50.091Z,5.20
2023-05-02T11:52:50.036Z,6.80
2023-05-02T11:53:50.034Z,8.20
2023-05-02T11:54:50.027Z,8.60
2023-05-02T11:55:50.011Z,7.10
2023-05-02T11:56:50.069Z,8.00
2023-05-02T11:57:53.540Z,6.90
2023-05-02T11:58:49.966Z,5.80
2023-05-02T11:59:49.969Z,8.00
2023-05-02T12:00:49.952Z,7.30
2023-05-02T12:01:49.998Z,8.00
2023-05-02T12:02:50.114Z,8.50
2023-05-02T12:03:50.121Z,8.40
2023-05-02T12:04:49.913Z,6.70
2023-05-02T12:05:49.941Z,7.30
2023-05-02T12:06:49.938Z,7.70
2023-05-02T12:07:51.648Z,9.40
2023-05-02T12:08:50.979Z,8.10
2023-05-02T12:09:49.874Z,8.60
2023-05-02T12:10:49.850Z,6.40
2023-05-02T12:11:49.849Z,5.60
2023-05-02T12:12:49.828Z,5.80
2023-05-02T12:13:50.228Z,12.20
2023-05-02T12:14:50.112Z,7.90
2023-05-02T12:15:49.847Z,8.10
2023-05-02T12:16:49.815Z,8.30
2023-05-02T12:17:49.780Z,9.30
2023-05-02T12:18:49.756Z,9.00
2023-05-02T12:19:49.778Z,6.30
2023-05-02T12:20:49.777Z,10.10
2023-05-02T12:21:51.517Z,6.60
2023-05-02T12:22:49.721Z,7.50
2023-05-02T12:23:49.733Z,8.00
2023-05-02T12:24:49.693Z,13.00
2023-05-02T12:25:49.693Z,7.20
2023-05-02T12:26:51.139Z,9.60
2023-05-02T12:27:51.362Z,9.90
2023-05-02T12:28:49.648Z,8.20
2023-05-02T12:29:49.832Z,7.40
2023-05-02T12:30:49.672Z,9.70
2023-05-02T12:31:49.655Z,9.00
2023-05-02T12:32:49.645Z,9.70
2023-05-02T12:33:49.630Z,9.70
2023-05-02T12:34:49.593Z,8.50
2023-05-02T12:35:49.696Z,9.30
2023-05-02T12:36:49.574Z,9.80
2023-05-02T12:37:49.611Z,7.90
2023-05-02T12:38:49.538Z,11.20
2023-05-02T12:39:49.533Z,9.70
2023-05-02T12:40:49.510Z,10.30
2023-05-02T12:41:52.700Z,10.60
2023-05-02T12:42:49.502Z,7.70
2023-05-02T12:43:49.490Z,8.50
2023-05-02T12:44:49.473Z,10.90
2023-05-02T12:45:49.482Z,9.30
2023-05-02T12:46:50.010Z,11.30
2023-05-02T12:47:49.486Z,9.40
2023-05-02T12:48:49.431Z,8.90
2023-05-02T12:49:49.431Z,9.40
2023-05-02T12:50:49.411Z,9.60
2023-05-02T12:51:51.020Z,8.80
2023-05-02T12:52:49.403Z,9.20
2023-05-02T12:53:55.284Z,9.10
2023-05-02T12:54:49.382Z,9.90
2023-05-02T12:55:49.371Z,10.10
2023-05-02T12:56:49.375Z,7.20
2023-05-02T12:57:49.382Z,9.70
2023-05-02T12:58:49.413Z,11.90
2023-05-02T12:59:49.352Z,8.60
2023-05-02T13:00:54.839Z,9.10